sensor_id;sensor_type;location;lat;lon;timestamp;temperature;humidity
74376;HTU21D;62812;55.188;61.302;2023-03-25T00:00:31;7.33;58.27
74376;HTU21D;62812;55.188;61.302;2023-03-25T00:02:58;7.33;56.55
74376;HTU21D;62812;55.188;61.302;2023-03-25T00:05:26;7.34;58.13
74376;HTU21D;62812;55.188;61.302;2023-03-25T00:07:53;7.29;56.77
74376;HTU21D;62812;55.188;61.302;2023-03-25T00:10:20;7.28;56.88
74376;HTU21D;62812;55.188;61.302;2023-03-25T00:12:46;7.14;57.94
74376;HTU21D;62812;55.188;61.302;2023-03-25T00:15:13;7.13;57.64
74376;HTU21D;62812;55.188;61.302;2023-03-25T00:17:41;7.08;57.90
74376;HTU21D;62812;55.188;61.302;2023-03-25T00:20:10;6.98;58.23
74376;HTU21D;62812;55.188;61.302;2023-03-25T00:22:39;6.94;58.39
74376;HTU21D;62812;55.188;61.302;2023-03-25T00:25:08;6.87;58.64
74376;HTU21D;62812;55.188;61.302;2023-03-25T00:27:35;6.83;58.68
74376;HTU21D;62812;55.188;61.302;2023-03-25T00:30:04;6.86;58.85
74376;HTU21D;62812;55.188;61.302;2023-03-25T00:32:32;6.96;59.19
74376;HTU21D;62812;55.188;61.302;2023-03-25T00:34:58;6.96;58.85
74376;HTU21D;62812;55.188;61.302;2023-03-25T00:37:25;6.95;58.61
74376;HTU21D;62812;55.188;61.302;2023-03-25T00:39:53;6.97;58.70
74376;HTU21D;62812;55.188;61.302;2023-03-25T00:42:20;6.97;58.82
74376;HTU21D;62812;55.188;61.302;2023-03-25T00:44:51;7.01;59.95
74376;HTU21D;62812;55.188;61.302;2023-03-25T00:47:18;7.04;58.46
74376;HTU21D;62812;55.188;61.302;2023-03-25T00:49:47;7.09;59.17
74376;HTU21D;62812;55.188;61.302;2023-03-25T00:52:14;7.03;58.43
74376;HTU21D;62812;55.188;61.302;2023-03-25T00:54:41;6.98;58.75
74376;HTU21D;62812;55.188;61.302;2023-03-25T00:57:10;6.96;59.74
74376;HTU21D;62812;55.188;61.302;2023-03-25T00:59:37;6.89;59.09
74376;HTU21D;62812;55.188;61.302;2023-03-25T01:02:03;6.90;59.77
74376;HTU21D;62812;55.188;61.302;2023-03-25T01:04:32;6.93;59.57
74376;HTU21D;62812;55.188;61.302;2023-03-25T01:06:59;6.94;59.22
74376;HTU21D;62812;55.188;61.302;2023-03-25T01:09:26;6.91;59.32
74376;HTU21D;62812;55.188;61.302;2023-03-25T01:11:53;6.89;59.29
74376;HTU21D;62812;55.188;61.302;2023-03-25T01:14:22;6.91;59.44
74376;HTU21D;62812;55.188;61.302;2023-03-25T01:16:54;6.97;59.46
74376;HTU21D;62812;55.188;61.302;2023-03-25T01:19:22;6.93;59.39
74376;HTU21D;62812;55.188;61.302;2023-03-25T01:21:49;6.93;59.64
74376;HTU21D;62812;55.188;61.302;2023-03-25T01:24:15;6.86;59.59
74376;HTU21D;62812;55.188;61.302;2023-03-25T01:26:42;6.85;59.90
74376;HTU21D;62812;55.188;61.302;2023-03-25T01:29:12;6.87;59.95
74376;HTU21D;62812;55.188;61.302;2023-03-25T01:31:41;6.88;59.75
74376;HTU21D;62812;55.188;61.302;2023-03-25T01:34:08;6.90;59.80
74376;HTU21D;62812;55.188;61.302;2023-03-25T01:36:35;6.93;60.28
74376;HTU21D;62812;55.188;61.302;2023-03-25T01:39:05;6.98;60.31
74376;HTU21D;62812;55.188;61.302;2023-03-25T01:41:35;7.09;59.48
74376;HTU21D;62812;55.188;61.302;2023-03-25T01:44:04;7.12;59.27
74376;HTU21D;62812;55.188;61.302;2023-03-25T01:46:32;7.12;59.80
74376;HTU21D;62812;55.188;61.302;2023-03-25T01:49:02;7.17;59.26
74376;HTU21D;62812;55.188;61.302;2023-03-25T01:51:32;7.17;59.19
74376;HTU21D;62812;55.188;61.302;2023-03-25T01:54:00;7.20;59.12
74376;HTU21D;62812;55.188;61.302;2023-03-25T01:56:30;7.24;59.22
74376;HTU21D;62812;55.188;61.302;2023-03-25T01:59:00;7.28;58.95
74376;HTU21D;62812;55.188;61.302;2023-03-25T02:01:28;7.35;59.85
74376;HTU21D;62812;55.188;61.302;2023-03-25T02:03:57;7.40;58.91
74376;HTU21D;62812;55.188;61.302;2023-03-25T02:06:49;7.41;59.29
74376;HTU21D;62812;55.188;61.302;2023-03-25T02:09:21;7.41;58.64
74376;HTU21D;62812;55.188;61.302;2023-03-25T02:11:50;7.37;58.93
74376;HTU21D;62812;55.188;61.302;2023-03-25T02:14:22;7.38;58.75
74376;HTU21D;62812;55.188;61.302;2023-03-25T02:16:55;7.49;58.32
74376;HTU21D;62812;55.188;61.302;2023-03-25T02:19:52;7.50;58.55
74376;HTU21D;62812;55.188;61.302;2023-03-25T02:26:12;7.53;58.36
74376;HTU21D;62812;55.188;61.302;2023-03-25T02:28:49;7.63;58.27
74376;HTU21D;62812;55.188;61.302;2023-03-25T02:31:32;7.68;58.06
74376;HTU21D;62812;55.188;61.302;2023-03-25T02:34:27;7.73;57.65
74376;HTU21D;62812;55.188;61.302;2023-03-25T02:37:33;7.81;57.65
74376;HTU21D;62812;55.188;61.302;2023-03-25T02:40:06;7.92;57.64
74376;HTU21D;62812;55.188;61.302;2023-03-25T02:42:39;8.04;57.01
74376;HTU21D;62812;55.188;61.302;2023-03-25T02:45:12;8.13;57.36
74376;HTU21D;62812;55.188;61.302;2023-03-25T02:47:46;8.37;56.37
74376;HTU21D;62812;55.188;61.302;2023-03-25T02:50:16;8.45;56.71
74376;HTU21D;62812;55.188;61.302;2023-03-25T02:52:49;8.57;56.62
74376;HTU21D;62812;55.188;61.302;2023-03-25T02:55:19;8.66;55.07
74376;HTU21D;62812;55.188;61.302;2023-03-25T02:57:50;8.70;55.61
74376;HTU21D;62812;55.188;61.302;2023-03-25T03:00:22;8.74;56.00
74376;HTU21D;62812;55.188;61.302;2023-03-25T03:02:53;8.77;55.08
74376;HTU21D;62812;55.188;61.302;2023-03-25T03:05:26;8.81;55.24
74376;HTU21D;62812;55.188;61.302;2023-03-25T03:08:03;8.81;54.67
74376;HTU21D;62812;55.188;61.302;2023-03-25T03:10:39;8.93;54.71
74376;HTU21D;62812;55.188;61.302;2023-03-25T03:13:15;9.01;55.95
74376;HTU21D;62812;55.188;61.302;2023-03-25T03:15:53;9.23;54.62
74376;HTU21D;62812;55.188;61.302;2023-03-25T03:18:35;9.29;53.60
74376;HTU21D;62812;55.188;61.302;2023-03-25T03:21:13;9.25;53.48
74376;HTU21D;62812;55.188;61.302;2023-03-25T03:23:54;9.23;52.88
74376;HTU21D;62812;55.188;61.302;2023-03-25T03:26:27;9.30;55.25
74376;HTU21D;62812;55.188;61.302;2023-03-25T03:29:01;9.27;54.01
74376;HTU21D;62812;55.188;61.302;2023-03-25T03:31:33;9.30;52.43
74376;HTU21D;62812;55.188;61.302;2023-03-25T03:34:06;9.40;54.64
74376;HTU21D;62812;55.188;61.302;2023-03-25T03:36:40;9.56;52.68
74376;HTU21D;62812;55.188;61.302;2023-03-25T03:39:14;9.75;52.75
74376;HTU21D;62812;55.188;61.302;2023-03-25T03:41:46;10.06;51.13
74376;HTU21D;62812;55.188;61.302;2023-03-25T03:44:19;10.45;53.52
74376;HTU21D;62812;55.188;61.302;2023-03-25T03:46:50;10.89;48.63
74376;HTU21D;62812;55.188;61.302;2023-03-25T03:49:23;11.08;47.67
74376;HTU21D;62812;55.188;61.302;2023-03-25T03:51:56;11.26;47.50
74376;HTU21D;62812;55.188;61.302;2023-03-25T03:54:26;11.36;47.66
74376;HTU21D;62812;55.188;61.302;2023-03-25T03:56:58;11.39;47.12
74376;HTU21D;62812;55.188;61.302;2023-03-25T03:59:32;11.58;46.60
74376;HTU21D;62812;55.188;61.302;2023-03-25T04:02:07;11.71;45.60
74376;HTU21D;62812;55.188;61.302;2023-03-25T04:04:37;11.86;47.99
74376;HTU21D;62812;55.188;61.302;2023-03-25T04:07:07;11.97;46.19
74376;HTU21D;62812;55.188;61.302;2023-03-25T04:09:50;12.12;47.41
74376;HTU21D;62812;55.188;61.302;2023-03-25T04:12:24;12.10;45.90
74376;HTU21D;62812;55.188;61.302;2023-03-25T04:14:52;12.17;44.10
74376;HTU21D;62812;55.188;61.302;2023-03-25T04:17:19;12.35;44.77
74376;HTU21D;62812;55.188;61.302;2023-03-25T04:19:46;12.71;43.67
74376;HTU21D;62812;55.188;61.302;2023-03-25T04:22:16;12.89;43.33
74376;HTU21D;62812;55.188;61.302;2023-03-25T04:24:43;13.12;44.28
74376;HTU21D;62812;55.188;61.302;2023-03-25T04:27:10;13.17;41.46
74376;HTU21D;62812;55.188;61.302;2023-03-25T04:29:40;13.10;41.65
74376;HTU21D;62812;55.188;61.302;2023-03-25T04:32:10;13.11;41.35
74376;HTU21D;62812;55.188;61.302;2023-03-25T04:34:37;13.02;42.69
74376;HTU21D;62812;55.188;61.302;2023-03-25T04:37:03;13.19;42.03
74376;HTU21D;62812;55.188;61.302;2023-03-25T04:39:31;13.43;44.35
74376;HTU21D;62812;55.188;61.302;2023-03-25T04:41:58;13.47;41.81
74376;HTU21D;62812;55.188;61.302;2023-03-25T04:44:29;13.40;41.51
74376;HTU21D;62812;55.188;61.302;2023-03-25T04:47:01;13.52;40.33
74376;HTU21D;62812;55.188;61.302;2023-03-25T04:49:28;13.53;40.18
74376;HTU21D;62812;55.188;61.302;2023-03-25T04:51:55;13.27;41.03
74376;HTU21D;62812;55.188;61.302;2023-03-25T04:54:23;13.15;40.94
74376;HTU21D;62812;55.188;61.302;2023-03-25T04:56:50;13.16;41.45
74376;HTU21D;62812;55.188;61.302;2023-03-25T04:59:18;13.02;41.51
74376;HTU21D;62812;55.188;61.302;2023-03-25T05:01:46;13.01;45.71
74376;HTU21D;62812;55.188;61.302;2023-03-25T05:04:16;13.15;41.32
74376;HTU21D;62812;55.188;61.302;2023-03-25T05:06:43;13.07;42.34
74376;HTU21D;62812;55.188;61.302;2023-03-25T05:09:12;13.05;41.23
74376;HTU21D;62812;55.188;61.302;2023-03-25T05:11:41;12.84;43.19
74376;HTU21D;62812;55.188;61.302;2023-03-25T05:14:09;12.99;43.27
74376;HTU21D;62812;55.188;61.302;2023-03-25T05:16:36;13.21;45.54
74376;HTU21D;62812;55.188;61.302;2023-03-25T05:19:03;13.50;41.82
74376;HTU21D;62812;55.188;61.302;2023-03-25T05:21:33;13.69;42.82
74376;HTU21D;62812;55.188;61.302;2023-03-25T05:24:04;14.04;44.25
74376;HTU21D;62812;55.188;61.302;2023-03-25T05:26:33;14.26;42.57
74376;HTU21D;62812;55.188;61.302;2023-03-25T05:29:00;14.50;42.26
74376;HTU21D;62812;55.188;61.302;2023-03-25T05:31:27;14.40;39.67
74376;HTU21D;62812;55.188;61.302;2023-03-25T05:34:25;14.56;43.59
74376;HTU21D;62812;55.188;61.302;2023-03-25T05:36:58;14.54;37.82
74376;HTU21D;62812;55.188;61.302;2023-03-25T05:39:25;14.37;40.78
74376;HTU21D;62812;55.188;61.302;2023-03-25T05:41:52;14.23;40.69
74376;HTU21D;62812;55.188;61.302;2023-03-25T05:44:21;14.11;38.30
74376;HTU21D;62812;55.188;61.302;2023-03-25T05:46:47;14.13;42.36
74376;HTU21D;62812;55.188;61.302;2023-03-25T05:49:14;14.04;41.17
74376;HTU21D;62812;55.188;61.302;2023-03-25T05:51:41;14.04;38.75
74376;HTU21D;62812;55.188;61.302;2023-03-25T05:54:12;13.80;38.53
74376;HTU21D;62812;55.188;61.302;2023-03-25T05:56:39;13.63;39.30
74376;HTU21D;62812;55.188;61.302;2023-03-25T05:59:09;13.48;40.91
74376;HTU21D;62812;55.188;61.302;2023-03-25T06:01:36;13.44;40.60
74376;HTU21D;62812;55.188;61.302;2023-03-25T06:04:03;13.54;40.19
74376;HTU21D;62812;55.188;61.302;2023-03-25T06:07:05;13.82;43.50
74376;HTU21D;62812;55.188;61.302;2023-03-25T06:10:33;14.12;43.21
74376;HTU21D;62812;55.188;61.302;2023-03-25T06:13:02;14.08;41.38
74376;HTU21D;62812;55.188;61.302;2023-03-25T06:15:30;14.29;42.26
74376;HTU21D;62812;55.188;61.302;2023-03-25T06:17:59;14.36;40.42
74376;HTU21D;62812;55.188;61.302;2023-03-25T06:20:25;14.49;40.85
74376;HTU21D;62812;55.188;61.302;2023-03-25T06:22:53;14.29;38.47
74376;HTU21D;62812;55.188;61.302;2023-03-25T06:25:20;14.08;39.11
74376;HTU21D;62812;55.188;61.302;2023-03-25T06:27:49;14.23;39.45
74376;HTU21D;62812;55.188;61.302;2023-03-25T06:30:18;14.32;39.88
74376;HTU21D;62812;55.188;61.302;2023-03-25T06:32:46;14.42;39.61
74376;HTU21D;62812;55.188;61.302;2023-03-25T06:35:16;14.36;43.92
74376;HTU21D;62812;55.188;61.302;2023-03-25T06:37:45;14.60;39.83
74376;HTU21D;62812;55.188;61.302;2023-03-25T06:40:13;14.81;43.48
74376;HTU21D;62812;55.188;61.302;2023-03-25T06:42:40;14.70;37.82
74376;HTU21D;62812;55.188;61.302;2023-03-25T06:45:11;14.48;37.75
74376;HTU21D;62812;55.188;61.302;2023-03-25T06:47:42;14.50;38.26
74376;HTU21D;62812;55.188;61.302;2023-03-25T06:50:18;14.48;37.87
74376;HTU21D;62812;55.188;61.302;2023-03-25T06:52:44;14.56;39.68
74376;HTU21D;62812;55.188;61.302;2023-03-25T06:55:11;14.51;40.17
74376;HTU21D;62812;55.188;61.302;2023-03-25T06:57:53;14.37;43.10
74376;HTU21D;62812;55.188;61.302;2023-03-25T07:00:22;14.29;38.52
74376;HTU21D;62812;55.188;61.302;2023-03-25T07:02:50;14.26;41.63
74376;HTU21D;62812;55.188;61.302;2023-03-25T07:05:19;14.36;38.86
74376;HTU21D;62812;55.188;61.302;2023-03-25T07:07:46;14.39;37.83
74376;HTU21D;62812;55.188;61.302;2023-03-25T07:10:13;14.41;38.15
74376;HTU21D;62812;55.188;61.302;2023-03-25T07:12:39;14.42;37.46
74376;HTU21D;62812;55.188;61.302;2023-03-25T07:15:09;14.47;37.73
74376;HTU21D;62812;55.188;61.302;2023-03-25T07:17:37;14.67;39.14
74376;HTU21D;62812;55.188;61.302;2023-03-25T07:20:09;14.66;36.71
74376;HTU21D;62812;55.188;61.302;2023-03-25T07:22:36;14.77;40.80
74376;HTU21D;62812;55.188;61.302;2023-03-25T07:25:03;14.85;36.75
74376;HTU21D;62812;55.188;61.302;2023-03-25T07:27:30;14.86;40.99
74376;HTU21D;62812;55.188;61.302;2023-03-25T07:29:57;14.87;36.63
74376;HTU21D;62812;55.188;61.302;2023-03-25T07:32:24;14.63;37.12
74376;HTU21D;62812;55.188;61.302;2023-03-25T07:34:52;14.57;37.65
74376;HTU21D;62812;55.188;61.302;2023-03-25T07:37:19;14.70;41.95
74376;HTU21D;62812;55.188;61.302;2023-03-25T07:39:45;14.98;36.45
74376;HTU21D;62812;55.188;61.302;2023-03-25T07:42:12;15.07;37.35
74376;HTU21D;62812;55.188;61.302;2023-03-25T07:44:39;14.95;39.20
74376;HTU21D;62812;55.188;61.302;2023-03-25T07:47:07;14.88;37.23
74376;HTU21D;62812;55.188;61.302;2023-03-25T07:49:33;14.82;36.40
74376;HTU21D;62812;55.188;61.302;2023-03-25T07:52:02;14.87;39.26
74376;HTU21D;62812;55.188;61.302;2023-03-25T07:54:28;14.93;37.67
74376;HTU21D;62812;55.188;61.302;2023-03-25T07:57:00;15.07;39.88
74376;HTU21D;62812;55.188;61.302;2023-03-25T07:59:29;14.97;36.07
74376;HTU21D;62812;55.188;61.302;2023-03-25T08:01:59;14.84;39.11
74376;HTU21D;62812;55.188;61.302;2023-03-25T08:04:27;14.88;39.10
74376;HTU21D;62812;55.188;61.302;2023-03-25T08:06:55;15.02;41.55
74376;HTU21D;62812;55.188;61.302;2023-03-25T08:09:23;15.17;35.44
74376;HTU21D;62812;55.188;61.302;2023-03-25T08:11:51;15.08;35.08
74376;HTU21D;62812;55.188;61.302;2023-03-25T08:14:17;14.77;35.76
74376;HTU21D;62812;55.188;61.302;2023-03-25T08:16:44;14.55;36.37
74376;HTU21D;62812;55.188;61.302;2023-03-25T08:19:11;14.49;36.40
74376;HTU21D;62812;55.188;61.302;2023-03-25T08:21:40;14.36;36.76
74376;HTU21D;62812;55.188;61.302;2023-03-25T08:24:07;14.34;36.38
74376;HTU21D;62812;55.188;61.302;2023-03-25T08:26:43;14.33;37.06
74376;HTU21D;62812;55.188;61.302;2023-03-25T08:29:11;14.24;37.09
74376;HTU21D;62812;55.188;61.302;2023-03-25T08:31:37;14.29;37.99
74376;HTU21D;62812;55.188;61.302;2023-03-25T08:34:08;14.24;40.55
74376;HTU21D;62812;55.188;61.302;2023-03-25T08:36:38;14.34;37.01
74376;HTU21D;62812;55.188;61.302;2023-03-25T08:39:05;14.55;40.01
74376;HTU21D;62812;55.188;61.302;2023-03-25T08:41:36;14.64;35.75
74376;HTU21D;62812;55.188;61.302;2023-03-25T08:44:05;14.78;41.16
74376;HTU21D;62812;55.188;61.302;2023-03-25T08:46:37;14.98;36.24
74376;HTU21D;62812;55.188;61.302;2023-03-25T08:49:04;14.99;36.37
74376;HTU21D;62812;55.188;61.302;2023-03-25T08:51:32;15.15;37.55
74376;HTU21D;62812;55.188;61.302;2023-03-25T08:54:04;15.00;36.80
74376;HTU21D;62812;55.188;61.302;2023-03-25T08:56:34;15.03;41.52
74376;HTU21D;62812;55.188;61.302;2023-03-25T08:59:00;15.30;35.99
74376;HTU21D;62812;55.188;61.302;2023-03-25T09:01:56;15.37;40.99
74376;HTU21D;62812;55.188;61.302;2023-03-25T09:04:22;15.38;34.97
74376;HTU21D;62812;55.188;61.302;2023-03-25T09:06:50;15.31;36.05
74376;HTU21D;62812;55.188;61.302;2023-03-25T09:09:17;15.26;40.11
74376;HTU21D;62812;55.188;61.302;2023-03-25T09:11:43;15.14;35.79
74376;HTU21D;62812;55.188;61.302;2023-03-25T09:14:13;15.21;36.63
74376;HTU21D;62812;55.188;61.302;2023-03-25T09:16:44;15.31;35.93
74376;HTU21D;62812;55.188;61.302;2023-03-25T09:19:12;15.39;35.28
74376;HTU21D;62812;55.188;61.302;2023-03-25T09:21:38;15.48;34.90
74376;HTU21D;62812;55.188;61.302;2023-03-25T09:24:07;15.46;34.33
74376;HTU21D;62812;55.188;61.302;2023-03-25T09:26:34;15.42;40.02
74376;HTU21D;62812;55.188;61.302;2023-03-25T09:29:01;15.49;35.23
74376;HTU21D;62812;55.188;61.302;2023-03-25T09:31:30;15.60;34.25
74376;HTU21D;62812;55.188;61.302;2023-03-25T09:33:57;15.59;34.11
74376;HTU21D;62812;55.188;61.302;2023-03-25T09:36:25;15.33;33.75
74376;HTU21D;62812;55.188;61.302;2023-03-25T09:38:52;15.26;39.75
74376;HTU21D;62812;55.188;61.302;2023-03-25T09:41:38;15.45;35.90
74376;HTU21D;62812;55.188;61.302;2023-03-25T09:44:15;15.37;35.02
74376;HTU21D;62812;55.188;61.302;2023-03-25T09:46:45;15.58;36.20
74376;HTU21D;62812;55.188;61.302;2023-03-25T09:49:37;15.66;33.86
74376;HTU21D;62812;55.188;61.302;2023-03-25T09:52:30;15.58;37.47
74376;HTU21D;62812;55.188;61.302;2023-03-25T09:55:06;15.70;37.92
74376;HTU21D;62812;55.188;61.302;2023-03-25T09:57:41;15.68;36.08
74376;HTU21D;62812;55.188;61.302;2023-03-25T10:00:27;15.65;33.06
74376;HTU21D;62812;55.188;61.302;2023-03-25T10:03:13;15.76;38.19
74376;HTU21D;62812;55.188;61.302;2023-03-25T10:06:12;15.81;36.02
74376;HTU21D;62812;55.188;61.302;2023-03-25T10:09:06;15.98;34.59
74376;HTU21D;62812;55.188;61.302;2023-03-25T10:11:43;15.93;36.11
74376;HTU21D;62812;55.188;61.302;2023-03-25T10:14:20;15.74;32.86
74376;HTU21D;62812;55.188;61.302;2023-03-25T10:16:59;15.65;33.61
74376;HTU21D;62812;55.188;61.302;2023-03-25T10:19:37;15.58;33.20
74376;HTU21D;62812;55.188;61.302;2023-03-25T10:22:10;15.42;37.33
74376;HTU21D;62812;55.188;61.302;2023-03-25T10:24:46;15.54;37.53
74376;HTU21D;62812;55.188;61.302;2023-03-25T10:27:37;15.63;34.54
74376;HTU21D;62812;55.188;61.302;2023-03-25T10:30:11;15.81;36.91
74376;HTU21D;62812;55.188;61.302;2023-03-25T10:32:42;15.60;36.16
74376;HTU21D;62812;55.188;61.302;2023-03-25T10:35:13;15.44;36.40
74376;HTU21D;62812;55.188;61.302;2023-03-25T10:38:20;15.43;37.06
74376;HTU21D;62812;55.188;61.302;2023-03-25T10:40:37;15.39;34.34
74376;HTU21D;62812;55.188;61.302;2023-03-25T10:43:20;15.15;33.54
74376;HTU21D;62812;55.188;61.302;2023-03-25T10:45:52;15.07;34.59
74376;HTU21D;62812;55.188;61.302;2023-03-25T10:48:23;14.87;34.31
74376;HTU21D;62812;55.188;61.302;2023-03-25T10:50:52;14.79;34.41
74376;HTU21D;62812;55.188;61.302;2023-03-25T10:53:23;14.77;35.80
74376;HTU21D;62812;55.188;61.302;2023-03-25T10:56:01;14.71;34.04
74376;HTU21D;62812;55.188;61.302;2023-03-25T10:58:29;14.72;36.05
74376;HTU21D;62812;55.188;61.302;2023-03-25T11:00:56;14.88;36.08
74376;HTU21D;62812;55.188;61.302;2023-03-25T11:03:26;14.92;35.16
74376;HTU21D;62812;55.188;61.302;2023-03-25T11:05:56;14.89;34.80
74376;HTU21D;62812;55.188;61.302;2023-03-25T11:08:28;14.79;34.37
74376;HTU21D;62812;55.188;61.302;2023-03-25T11:10:58;14.74;37.32
74376;HTU21D;62812;55.188;61.302;2023-03-25T11:13:52;14.60;36.59
74376;HTU21D;62812;55.188;61.302;2023-03-25T11:16:21;14.57;37.12
74376;HTU21D;62812;55.188;61.302;2023-03-25T11:18:50;14.45;35.87
74376;HTU21D;62812;55.188;61.302;2023-03-25T11:21:19;14.40;35.44
74376;HTU21D;62812;55.188;61.302;2023-03-25T11:23:50;14.24;35.88
74376;HTU21D;62812;55.188;61.302;2023-03-25T11:26:22;14.09;35.84
74376;HTU21D;62812;55.188;61.302;2023-03-25T11:28:53;13.96;36.59
74376;HTU21D;62812;55.188;61.302;2023-03-25T11:31:21;13.95;36.41
74376;HTU21D;62812;55.188;61.302;2023-03-25T11:43:22;14.37;37.86
74376;HTU21D;62812;55.188;61.302;2023-03-25T11:45:51;14.22;36.10
74376;HTU21D;62812;55.188;61.302;2023-03-25T11:48:37;13.99;38.96
74376;HTU21D;62812;55.188;61.302;2023-03-25T11:51:11;13.80;36.25
74376;HTU21D;62812;55.188;61.302;2023-03-25T11:53:44;13.66;37.82
74376;HTU21D;62812;55.188;61.302;2023-03-25T11:56:16;13.49;41.35
74376;HTU21D;62812;55.188;61.302;2023-03-25T11:58:50;13.56;39.62
74376;HTU21D;62812;55.188;61.302;2023-03-25T12:01:24;13.45;37.93
74376;HTU21D;62812;55.188;61.302;2023-03-25T12:04:06;13.23;41.23
74376;HTU21D;62812;55.188;61.302;2023-03-25T12:06:33;13.44;40.23
74376;HTU21D;62812;55.188;61.302;2023-03-25T12:09:06;13.60;39.10
74376;HTU21D;62812;55.188;61.302;2023-03-25T12:11:56;13.74;37.51
74376;HTU21D;62812;55.188;61.302;2023-03-25T12:14:33;13.86;38.09
74376;HTU21D;62812;55.188;61.302;2023-03-25T12:17:04;13.70;38.31
74376;HTU21D;62812;55.188;61.302;2023-03-25T12:19:39;13.47;38.14
74376;HTU21D;62812;55.188;61.302;2023-03-25T12:22:23;13.22;38.05
74376;HTU21D;62812;55.188;61.302;2023-03-25T12:25:04;13.40;43.94
74376;HTU21D;62812;55.188;61.302;2023-03-25T12:27:45;13.22;38.52
74376;HTU21D;62812;55.188;61.302;2023-03-25T12:30:28;13.15;39.31
74376;HTU21D;62812;55.188;61.302;2023-03-25T12:33:01;13.35;44.33
74376;HTU21D;62812;55.188;61.302;2023-03-25T12:35:38;13.62;39.62
74376;HTU21D;62812;55.188;61.302;2023-03-25T12:38:16;13.64;38.89
74376;HTU21D;62812;55.188;61.302;2023-03-25T12:41:02;13.48;38.57
74376;HTU21D;62812;55.188;61.302;2023-03-25T12:43:42;13.16;39.56
74376;HTU21D;62812;55.188;61.302;2023-03-25T12:46:38;12.97;39.85
74376;HTU21D;62812;55.188;61.302;2023-03-25T12:49:16;12.60;40.65
74376;HTU21D;62812;55.188;61.302;2023-03-25T12:51:51;12.49;46.70
74376;HTU21D;62812;55.188;61.302;2023-03-25T12:54:36;12.70;44.53
74376;HTU21D;62812;55.188;61.302;2023-03-25T12:57:19;12.81;44.77
74376;HTU21D;62812;55.188;61.302;2023-03-25T13:00:14;12.87;41.83
74376;HTU21D;62812;55.188;61.302;2023-03-25T13:09:59;12.31;42.22
74376;HTU21D;62812;55.188;61.302;2023-03-25T13:12:37;12.22;43.17
74376;HTU21D;62812;55.188;61.302;2023-03-25T13:15:19;12.21;44.96
74376;HTU21D;62812;55.188;61.302;2023-03-25T13:17:53;12.26;43.42
74376;HTU21D;62812;55.188;61.302;2023-03-25T13:20:24;12.13;43.40
74376;HTU21D;62812;55.188;61.302;2023-03-25T13:29:26;12.01;43.87
74376;HTU21D;62812;55.188;61.302;2023-03-25T13:31:56;12.13;46.76
74376;HTU21D;62812;55.188;61.302;2023-03-25T13:34:27;12.22;43.10
74376;HTU21D;62812;55.188;61.302;2023-03-25T13:37:03;12.12;43.78
74376;HTU21D;62812;55.188;61.302;2023-03-25T13:39:54;11.92;43.80
74376;HTU21D;62812;55.188;61.302;2023-03-25T13:42:39;11.66;44.86
74376;HTU21D;62812;55.188;61.302;2023-03-25T13:45:15;11.46;45.47
74376;HTU21D;62812;55.188;61.302;2023-03-25T13:47:52;11.30;46.33
74376;HTU21D;62812;55.188;61.302;2023-03-25T13:50:37;11.16;46.84
74376;HTU21D;62812;55.188;61.302;2023-03-25T13:53:06;11.08;47.13
74376;HTU21D;62812;55.188;61.302;2023-03-25T13:55:37;11.05;46.53
74376;HTU21D;62812;55.188;61.302;2023-03-25T13:58:32;11.22;47.32
74376;HTU21D;62812;55.188;61.302;2023-03-25T14:01:40;11.24;46.67
74376;HTU21D;62812;55.188;61.302;2023-03-25T14:04:30;11.08;47.11
74376;HTU21D;62812;55.188;61.302;2023-03-25T14:07:34;10.97;47.67
74376;HTU21D;62812;55.188;61.302;2023-03-25T14:10:28;10.90;49.12
74376;HTU21D;62812;55.188;61.302;2023-03-25T14:13:16;10.77;48.64
74376;HTU21D;62812;55.188;61.302;2023-03-25T14:15:50;10.65;48.40
74376;HTU21D;62812;55.188;61.302;2023-03-25T14:18:20;10.56;48.86
74376;HTU21D;62812;55.188;61.302;2023-03-25T14:20:47;10.48;49.28
74376;HTU21D;62812;55.188;61.302;2023-03-25T14:23:21;10.43;50.00
74376;HTU21D;62812;55.188;61.302;2023-03-25T14:25:53;10.37;50.09
74376;HTU21D;62812;55.188;61.302;2023-03-25T14:28:32;10.31;50.53
74376;HTU21D;62812;55.188;61.302;2023-03-25T14:31:14;10.30;51.30
74376;HTU21D;62812;55.188;61.302;2023-03-25T14:37:32;10.30;51.14
74376;HTU21D;62812;55.188;61.302;2023-03-25T14:40:04;10.26;51.60
74376;HTU21D;62812;55.188;61.302;2023-03-25T14:42:56;10.26;52.21
74376;HTU21D;62812;55.188;61.302;2023-03-25T14:45:49;10.28;52.99
74376;HTU21D;62812;55.188;61.302;2023-03-25T14:48:32;10.39;52.94
74376;HTU21D;62812;55.188;61.302;2023-03-25T14:51:43;10.38;53.89
74376;HTU21D;62812;55.188;61.302;2023-03-25T14:54:35;10.34;54.59
74376;HTU21D;62812;55.188;61.302;2023-03-25T15:00:23;10.21;55.61
74376;HTU21D;62812;55.188;61.302;2023-03-25T15:02:59;10.14;56.32
74376;HTU21D;62812;55.188;61.302;2023-03-25T15:19:11;9.81;59.48
74376;HTU21D;62812;55.188;61.302;2023-03-25T15:24:51;10.06;57.77
74376;HTU21D;62812;55.188;61.302;2023-03-25T15:27:31;10.11;58.96
74376;HTU21D;62812;55.188;61.302;2023-03-25T15:30:07;10.19;59.35
74376;HTU21D;62812;55.188;61.302;2023-03-25T15:32:48;10.06;59.44
74376;HTU21D;62812;55.188;61.302;2023-03-25T15:35:48;9.98;59.72
74376;HTU21D;62812;55.188;61.302;2023-03-25T15:39:05;9.77;60.80
74376;HTU21D;62812;55.188;61.302;2023-03-25T15:41:54;9.57;61.28
74376;HTU21D;62812;55.188;61.302;2023-03-25T15:47:57;9.34;61.58
74376;HTU21D;62812;55.188;61.302;2023-03-25T15:50:41;9.11;62.69
74376;HTU21D;62812;55.188;61.302;2023-03-25T15:53:40;9.01;62.53
74376;HTU21D;62812;55.188;61.302;2023-03-25T15:56:12;8.86;62.98
74376;HTU21D;62812;55.188;61.302;2023-03-25T15:58:46;8.81;63.73
74376;HTU21D;62812;55.188;61.302;2023-03-25T16:01:20;8.77;63.33
74376;HTU21D;62812;55.188;61.302;2023-03-25T16:03:59;8.70;64.18
74376;HTU21D;62812;55.188;61.302;2023-03-25T16:06:39;8.59;64.81
74376;HTU21D;62812;55.188;61.302;2023-03-25T16:09:10;8.48;65.21
74376;HTU21D;62812;55.188;61.302;2023-03-25T16:11:41;8.42;65.19
74376;HTU21D;62812;55.188;61.302;2023-03-25T16:14:11;8.35;65.38
74376;HTU21D;62812;55.188;61.302;2023-03-25T16:16:40;8.35;65.37
74376;HTU21D;62812;55.188;61.302;2023-03-25T16:19:12;8.20;66.15
74376;HTU21D;62812;55.188;61.302;2023-03-25T16:21:41;8.18;66.17
74376;HTU21D;62812;55.188;61.302;2023-03-25T16:24:10;8.15;66.50
74376;HTU21D;62812;55.188;61.302;2023-03-25T16:26:39;8.06;66.70
74376;HTU21D;62812;55.188;61.302;2023-03-25T16:29:15;7.99;66.77
74376;HTU21D;62812;55.188;61.302;2023-03-25T16:31:51;7.97;66.88
74376;HTU21D;62812;55.188;61.302;2023-03-25T16:34:19;8.05;67.01
74376;HTU21D;62812;55.188;61.302;2023-03-25T16:36:50;8.00;67.33